Time;durP1;ratioP1;P1;durP2;ratioP2;P2;SDS_P1;SDS_P2;PMS_P1;PMS_P2;Temp;Humidity;BMP_temperature;BMP_pressure;BME280_temperature;BME280_humidity;BME280_pressure;Samples;Min_cycle;Max_cycle;Signal;HPM_P1;HPM_P2
2022/08/15 00:00:13;;;;;;;1.15;0.82;;;;;;;19.85;100.00;100299.19;10398413;28;20052;-78
2022/08/15 00:05:33;;;;;;;0.85;0.13;;;;;;;19.71;100.00;100315.16;10400275;28;20519;-79
2022/08/15 00:10:38;;;;;;;0.40;0.40;;;;;;;19.55;100.00;100311.97;10411650;28;20065;-77
2022/08/15 00:15:59;;;;;;;0.22;0.22;;;;;;;19.68;100.00;100306.53;10416034;28;20038;-77
2022/08/15 00:21:03;;;;;;;2.67;0.45;;;;;;;19.66;100.00;100301.31;10414917;28;20033;-78
2022/08/15 00:26:12;;;;;;;0.40;0.32;;;;;;;19.43;100.00;100309.63;10415815;28;20050;-77
2022/08/15 00:31:31;;;;;;;2.75;0.57;;;;;;;19.27;100.00;100315.16;10419162;28;20041;-77
2022/08/15 00:36:46;;;;;;;0.50;0.30;;;;;;;19.41;100.00;100298.34;10398155;28;20049;-77
2022/08/15 00:41:58;;;;;;;0.32;0.30;;;;;;;19.28;100.00;100297.75;10414918;28;20481;-77
2022/08/15 00:47:05;;;;;;;0.05;0.05;;;;;;;19.31;100.00;100295.94;10424458;28;20050;-77
2022/08/15 00:52:13;;;;;;;0.88;0.35;;;;;;;19.03;100.00;100283.41;10414542;28;20038;-77
2022/08/15 00:57:41;;;;;;;0.10;0.10;;;;;;;18.91;100.00;100282.78;10391417;28;20055;-78
2022/08/15 01:03:06;;;;;;;0.15;0.13;;;;;;;18.83;100.00;100290.72;10412570;28;20141;-77
2022/08/15 01:08:26;;;;;;;0.43;0.35;;;;;;;18.78;100.00;100287.34;10413757;28;20516;-77
2022/08/15 01:13:32;;;;;;;1.10;0.20;;;;;;;18.68;100.00;100304.91;10413898;28;20095;-77
2022/08/15 01:18:55;;;;;;;0.55;0.47;;;;;;;18.52;100.00;100291.25;10413585;28;20046;-77
2022/08/15 01:24:22;;;;;;;1.23;0.77;;;;;;;18.59;100.00;100298.09;10402151;28;20548;-77
2022/08/15 01:29:27;;;;;;;1.08;0.32;;;;;;;18.55;100.00;100299.03;10401194;28;20500;-77
2022/08/15 01:34:28;;;;;;;0.75;0.40;;;;;;;18.51;100.00;100300.84;10405946;28;20119;-77
2022/08/15 01:39:39;;;;;;;0.75;0.75;;;;;;;18.21;100.00;100302.16;10413482;28;20054;-77
2022/08/15 01:44:50;;;;;;;0.73;0.30;;;;;;;18.47;100.00;100303.53;10409047;28;20115;-78
2022/08/15 01:50:20;;;;;;;1.08;0.68;;;;;;;18.14;100.00;100310.97;10391376;28;20137;-78
2022/08/15 01:55:38;;;;;;;;;;;;;;;17.64;100.00;100348.09;10413839;28;20046;-77
2022/08/15 02:01:00;;;;;;;1.27;0.75;;;;;;;18.21;100.00;100325.63;10412897;28;19928;-77
2022/08/15 02:06:20;;;;;;;1.10;0.30;;;;;;;18.40;100.00;100313.19;10413325;28;20541;-76
2022/08/15 02:11:35;;;;;;;0.38;0.32;;;;;;;18.23;100.00;100310.84;10412910;28;20128;-77
2022/08/15 02:16:43;;;;;;;0.93;0.52;;;;;;;17.83;100.00;100311.41;10409042;28;20061;-77
2022/08/15 02:21:47;;;;;;;0.30;0.30;;;;;;;18.33;100.00;100307.22;10413819;28;20042;-77
2022/08/15 02:26:53;;;;;;;0.28;0.28;;;;;;;18.24;100.00;100317.78;10427479;28;20049;-78
2022/08/15 02:32:11;;;;;;;0.22;0.22;;;;;;;18.33;100.00;100303.72;10417026;28;20045;-77
2022/08/15 02:37:19;;;;;;;0.00;0.00;;;;;;;18.62;100.00;100291.94;10410065;28;20041;-77
2022/08/15 02:42:31;;;;;;;0.45;0.28;;;;;;;18.89;100.00;100277.56;10416097;28;20846;-77
2022/08/15 02:47:34;;;;;;;0.15;0.10;;;;;;;19.17;100.00;100249.22;10422191;28;20559;-77
2022/08/15 02:52:41;;;;;;;0.55;0.55;;;;;;;18.77;100.00;100264.75;10421531;28;20042;-78
2022/08/15 02:57:45;;;;;;;1.58;0.80;;;;;;;18.91;100.00;100252.28;10422600;28;20075;-77
2022/08/15 03:03:06;;;;;;;0.40;0.32;;;;;;;18.69;100.00;100247.47;10407510;28;20049;-77
2022/08/15 03:08:10;;;;;;;0.47;0.03;;;;;;;18.57;100.00;100258.16;10422853;28;20072;-77
2022/08/15 03:13:15;;;;;;;0.73;0.63;;;;;;;18.58;100.00;100246.78;10405935;28;20049;-77
2022/08/15 03:18:17;;;;;;;0.20;0.20;;;;;;;18.33;100.00;100257.66;10419171;28;20045;-76
2022/08/15 03:23:35;;;;;;;3.20;1.02;;;;;;;18.93;100.00;100242.72;10426551;28;20440;-77
2022/08/15 03:28:44;;;;;;;1.23;1.13;;;;;;;18.51;100.00;100247.78;10431823;28;20041;-77
2022/08/15 03:34:07;;;;;;;0.10;0.10;;;;;;;18.23;100.00;100269.13;10425072;28;20065;-78
2022/08/15 03:39:10;;;;;;;0.60;0.60;;;;;;;18.51;100.00;100251.28;10433892;28;20041;-78
2022/08/15 03:44:17;;;;;;;0.08;0.08;;;;;;;18.10;100.00;100257.19;10435899;28;20072;-76
2022/08/15 03:49:29;;;;;;;0.10;0.10;;;;;;;18.26;100.00;100257.78;10439820;28;20132;-77
2022/08/15 03:54:51;;;;;;;2.72;1.05;;;;;;;18.09;100.00;100271.97;10422104;28;20060;-76
2022/08/15 03:59:57;;;;;;;4.22;1.73;;;;;;;18.60;100.00;100247.63;10439592;28;20045;-77
2022/08/15 04:05:00;;;;;;;3.03;1.15;;;;;;;18.85;100.00;100235.00;10439137;28;20107;-77
2022/08/15 04:10:11;;;;;;;0.45;0.32;;;;;;;19.00;100.00;100236.50;10440159;28;20046;-77
2022/08/15 04:15:34;;;;;;;1.55;1.08;;;;;;;19.07;100.00;100237.22;10436050;28;20049;-78
2022/08/15 04:20:37;;;;;;;0.30;0.28;;;;;;;18.97;100.00;100225.25;10473781;28;20049;-78
2022/08/15 04:25:44;;;;;;;0.70;0.63;;;;;;;18.99;100.00;100219.09;10443583;28;20049;-78
2022/08/15 04:31:02;;;;;;;0.65;0.63;;;;;;;19.00;100.00;100220.84;10442978;28;20108;-78
2022/08/15 04:36:10;;;;;;;0.30;0.30;;;;;;;19.06;100.00;100225.09;10443889;28;20599;-78
2022/08/15 04:41:20;;;;;;;0.20;0.20;;;;;;;19.01;100.00;100225.16;10453663;28;20076;-78
2022/08/15 04:46:38;;;;;;;0.52;0.52;;;;;;;18.94;100.00;100238.34;10437722;28;20049;-77
2022/08/15 04:51:43;;;;;;;2.30;1.38;;;;;;;19.02;100.00;100224.25;10443636;28;20436;-77
2022/08/15 04:56:45;;;;;;;0.95;0.68;;;;;;;18.84;100.00;100238.50;10442928;28;20125;-78
2022/08/15 05:01:56;;;;;;;6.25;1.20;;;;;;;18.93;100.00;100234.91;10441243;28;20051;-77
2022/08/15 05:07:18;;;;;;;2.67;1.40;;;;;;;19.00;100.00;100230.41;10432430;28;20041;-77
2022/08/15 05:12:21;;;;;;;0.70;0.60;;;;;;;18.95;100.00;100230.47;10441619;28;20045;-77
2022/08/15 05:17:24;;;;;;;1.30;1.00;;;;;;;18.96;100.00;100245.25;10439525;28;20065;-77
2022/08/15 05:23:04;;;;;;;0.75;0.73;;;;;;;19.17;100.00;100232.69;10440862;28;20037;-76
2022/08/15 05:28:15;;;;;;;3.00;1.23;;;;;;;19.26;100.00;100237.69;10422300;28;20037;-76
2022/08/15 05:33:32;;;;;;;1.23;0.98;;;;;;;19.24;100.00;100234.28;10444243;28;20284;-78
2022/08/15 05:38:58;;;;;;;4.55;1.88;;;;;;;19.40;100.00;100239.19;10418494;28;20038;-78
2022/08/15 05:44:41;;;;;;;3.20;1.70;;;;;;;19.55;100.00;100243.22;10437084;28;20063;-78
2022/08/15 05:49:53;;;;;;;1.13;1.02;;;;;;;19.76;100.00;100241.88;10428399;28;20045;-78
2022/08/15 05:55:03;;;;;;;2.58;1.83;;;;;;;19.84;100.00;100239.97;10455582;28;20050;-78
2022/08/15 06:00:32;;;;;;;2.58;0.93;;;;;;;20.05;100.00;100250.81;10455755;28;20052;-78
2022/08/15 06:05:43;;;;;;;0.00;0.00;;;;;;;20.24;100.00;100254.69;10435907;28;20477;-78
2022/08/15 06:10:48;;;;;;;;;;;;;;;20.42;100.00;100258.59;10434665;28;20048;-77
2022/08/15 06:16:01;;;;;;;0.38;0.38;;;;;;;20.28;100.00;100256.38;10434370;28;19929;-78
2022/08/15 06:21:53;;;;;;;0.43;0.43;;;;;;;20.26;100.00;100252.91;10448010;28;20030;-77
2022/08/15 06:27:10;;;;;;;0.30;0.30;;;;;;;20.51;100.00;100241.84;10438573;28;20046;-78
2022/08/15 06:32:31;;;;;;;0.73;0.65;;;;;;;20.41;100.00;100251.66;10421205;28;20103;-77
2022/08/15 06:38:05;;;;;;;0.32;0.32;;;;;;;20.68;100.00;100245.75;10417404;28;20037;-77
2022/08/15 06:43:29;;;;;;;0.35;0.35;;;;;;;20.67;100.00;100254.50;10419724;28;20045;-78
2022/08/15 06:48:49;;;;;;;0.75;0.20;;;;;;;20.72;100.00;100260.47;10413464;28;20046;-77
2022/08/15 06:54:00;;;;;;;0.45;0.45;;;;;;;20.91;100.00;100251.25;10414280;28;20136;-77
2022/08/15 06:59:38;;;;;;;0.30;0.20;;;;;;;20.88;100.00;100248.75;10439296;28;20037;-77
2022/08/15 07:05:13;;;;;;;1.05;0.30;;;;;;;20.99;100.00;100247.56;10419124;28;20520;-76
2022/08/15 07:10:48;;;;;;;0.45;0.43;;;;;;;20.96;100.00;100250.28;10414449;28;20136;-77
2022/08/15 07:16:05;;;;;;;0.50;0.35;;;;;;;21.15;100.00;100251.47;10418698;28;20405;-77
2022/08/15 07:21:22;;;;;;;0.50;0.50;;;;;;;21.29;100.00;100250.22;10418304;28;20053;-77
2022/08/15 07:26:46;;;;;;;0.68;0.40;;;;;;;21.47;100.00;100259.28;10419482;28;20095;-76
2022/08/15 07:31:50;;;;;;;0.32;0.30;;;;;;;21.82;100.00;100260.00;10421219;28;20077;-78
2022/08/15 07:37:17;;;;;;;0.73;0.30;;;;;;;21.89;100.00;100260.69;10419742;28;20392;-76
2022/08/15 07:42:22;;;;;;;0.30;0.30;;;;;;;22.01;100.00;100260.28;10418694;28;20113;-77
2022/08/15 07:47:59;;;;;;;0.53;0.53;;;;;;;22.19;100.00;100250.97;10418252;28;20449;-77
2022/08/15 07:53:20;;;;;;;0.75;0.73;;;;;;;22.23;100.00;100267.50;10386545;28;20371;-77
2022/08/15 07:58:25;;;;;;;1.00;0.90;;;;;;;22.38;100.00;100274.81;10416425;28;20053;-78
2022/08/15 08:04:29;;;;;;;0.68;0.40;;;;;;;22.56;100.00;100267.28;10418621;28;20600;-79
2022/08/15 08:10:03;;;;;;;0.70;0.60;;;;;;;22.76;100.00;100269.22;10424717;28;20119;-77
2022/08/15 08:15:56;;;;;;;0.95;0.32;;;;;;;22.85;100.00;100265.41;10413875;28;20045;-78
2022/08/15 08:21:16;;;;;;;0.35;0.20;;;;;;;22.91;100.00;100265.19;10406089;28;20046;-77
2022/08/15 08:26:40;;;;;;;0.30;0.30;;;;;;;22.94;100.00;100270.34;10407858;28;20045;-77
2022/08/15 08:32:12;;;;;;;0.52;0.30;;;;;;;22.82;100.00;100267.22;10415536;28;20077;-78
2022/08/15 08:37:41;;;;;;;0.30;0.30;;;;;;;22.80;100.00;100276.94;10398661;28;20264;-77
2022/08/15 08:43:08;;;;;;;1.25;0.45;;;;;;;22.71;100.00;100282.50;10404560;28;20523;-77
2022/08/15 08:48:40;;;;;;;0.45;0.40;;;;;;;22.62;100.00;100280.19;10397899;28;20053;-77
2022/08/15 08:54:01;;;;;;;0.60;0.60;;;;;;;22.57;100.00;100282.13;10399803;28;20412;-78
2022/08/15 08:59:52;;;;;;;0.80;0.68;;;;;;;22.52;100.00;100287.53;10396922;28;20050;-77
2022/08/15 09:05:07;;;;;;;1.13;0.93;;;;;;;22.60;100.00;100289.91;10402017;28;20063;-77
2022/08/15 09:10:11;;;;;;;1.67;0.85;;;;;;;22.45;100.00;100286.84;10392757;28;20424;-77
2022/08/15 09:15:31;;;;;;;1.98;0.80;;;;;;;22.60;100.00;100292.53;10399400;28;20568;-78
2022/08/15 09:20:48;;;;;;;0.35;0.30;;;;;;;22.70;100.00;100291.28;10401190;28;20033;-78
2022/08/15 09:26:15;;;;;;;0.50;0.40;;;;;;;22.62;100.00;100293.31;10393448;28;20058;-78
2022/08/15 09:31:27;;;;;;;0.88;0.50;;;;;;;22.78;100.00;100299.75;10403353;28;20049;-77
2022/08/15 09:37:03;;;;;;;0.20;0.20;;;;;;;23.02;100.00;100297.19;10399135;28;20041;-77
2022/08/15 09:42:25;;;;;;;0.63;0.63;;;;;;;22.96;100.00;100308.75;10412757;28;20052;-77
2022/08/15 09:47:39;;;;;;;0.57;0.40;;;;;;;23.09;100.00;100313.56;10402840;28;20050;-77
2022/08/15 09:53:21;;;;;;;0.98;0.88;;;;;;;23.22;100.00;100324.53;10393867;28;20045;-77
2022/08/15 09:58:31;;;;;;;0.95;0.82;;;;;;;23.53;100.00;100334.78;10406463;28;20050;-78
2022/08/15 10:04:12;;;;;;;5.28;1.08;;;;;;;23.46;100.00;100333.28;10405184;28;20095;-77
2022/08/15 10:09:32;;;;;;;1.20;0.77;;;;;;;23.47;100.00;100339.41;10409808;28;20045;-78
2022/08/15 10:14:47;;;;;;;0.50;0.32;;;;;;;23.73;100.00;100351.59;10406384;28;20464;-78
2022/08/15 10:19:50;;;;;;;0.38;0.38;;;;;;;23.64;100.00;100349.31;10425658;28;20049;-79
2022/08/15 10:25:35;;;;;;;1.85;1.42;;;;;;;23.84;100.00;100343.28;10406313;28;20496;-78
2022/08/15 10:30:45;;;;;;;0.75;0.47;;;;;;;24.35;100.00;100334.28;10403566;28;20050;-78
2022/08/15 10:35:55;;;;;;;1.27;0.90;;;;;;;25.17;100.00;100316.81;10413463;28;20096;-78
2022/08/15 10:41:10;;;;;;;2.95;1.02;;;;;;;25.24;100.00;100326.16;10402308;28;20048;-78
2022/08/15 10:46:22;;;;;;;2.35;0.63;;;;;;;25.03;100.00;100320.06;10407543;28;20042;-78
2022/08/15 10:51:43;;;;;;;1.05;0.93;;;;;;;24.98;100.00;100327.31;10403960;28;20050;-79
2022/08/15 10:56:45;;;;;;;2.35;1.58;;;;;;;24.90;100.00;100327.66;10421128;28;20489;-77
2022/08/15 11:02:18;;;;;;;1.60;1.17;;;;;;;25.42;99.98;100321.03;10426653;28;20046;-78
2022/08/15 11:07:47;;;;;;;0.82;0.60;;;;;;;25.26;99.33;100318.19;10410695;28;20041;-78
2022/08/15 11:13:14;;;;;;;1.58;0.95;;;;;;;25.15;100.00;100324.81;10408571;28;20037;-77
2022/08/15 11:18:27;;;;;;;0.38;0.28;;;;;;;25.28;100.00;100325.09;10402510;28;20038;-78
2022/08/15 11:23:39;;;;;;;1.23;0.80;;;;;;;25.39;100.00;100326.44;10395362;28;20045;-79
2022/08/15 11:28:43;;;;;;;2.45;1.67;;;;;;;25.52;100.00;100324.09;10381312;28;20084;-78
2022/08/15 11:33:56;;;;;;;0.45;0.22;;;;;;;25.70;98.18;100325.03;10419661;28;20058;-79
2022/08/15 11:39:13;;;;;;;1.05;0.50;;;;;;;25.60;98.85;100320.16;10400599;28;20050;-78
2022/08/15 11:44:21;;;;;;;1.13;0.45;;;;;;;25.50;100.00;100329.44;10411795;28;20065;-78
2022/08/15 11:49:41;;;;;;;0.55;0.52;;;;;;;25.44;100.00;100340.25;10403459;28;20045;-79
2022/08/15 11:55:12;;;;;;;3.75;1.27;;;;;;;25.37;100.00;100338.78;10403676;28;20034;-76
2022/08/15 12:00:42;;;;;;;0.47;0.38;;;;;;;25.61;100.00;100337.72;10408153;28;20050;-79
2022/08/15 12:05:44;;;;;;;1.10;0.82;;;;;;;25.79;96.92;100348.34;10417997;28;20045;-79
2022/08/15 12:11:16;;;;;;;1.27;0.77;;;;;;;26.16;97.02;100349.28;10416186;28;20033;-79
2022/08/15 12:16:31;;;;;;;0.75;0.68;;;;;;;26.23;95.42;100348.03;10417601;28;20049;-79
2022/08/15 12:21:46;;;;;;;0.20;0.10;;;;;;;27.22;90.70;100363.38;10412639;28;20053;-79
2022/08/15 12:27:12;;;;;;;1.20;1.10;;;;;;;27.43;83.35;100364.09;10415225;28;20353;-80
2022/08/15 12:32:19;;;;;;;1.37;1.00;;;;;;;27.32;79.54;100366.41;10414007;28;20038;-80
2022/08/15 12:37:38;;;;;;;1.58;0.88;;;;;;;27.18;78.23;100365.34;10391658;28;20303;-79
2022/08/15 12:42:53;;;;;;;2.10;1.15;;;;;;;27.05;76.75;100373.03;10404545;28;20038;-78
2022/08/15 12:48:01;;;;;;;0.55;0.38;;;;;;;27.42;77.20;100367.66;10401490;28;20053;-79
2022/08/15 12:53:08;;;;;;;2.72;0.73;;;;;;;27.63;83.99;100364.78;10394245;28;20045;-77
2022/08/15 12:58:12;;;;;;;0.38;0.38;;;;;;;27.21;80.57;100375.75;10402482;28;20046;-79
2022/08/15 13:03:20;;;;;;;2.72;0.85;;;;;;;27.47;76.72;100381.47;10400357;28;20046;-79
2022/08/15 13:08:29;;;;;;;1.33;0.52;;;;;;;26.86;80.63;100396.06;10404375;28;20046;-79
2022/08/15 13:14:00;;;;;;;1.17;0.57;;;;;;;26.79;79.97;100384.09;10399549;28;20046;-78
2022/08/15 13:19:06;;;;;;;0.40;0.40;;;;;;;27.54;80.25;100367.00;10384990;28;20087;-79
2022/08/15 13:24:13;;;;;;;0.77;0.60;;;;;;;27.53;79.92;100370.56;10386649;28;20046;-79
2022/08/15 13:29:21;;;;;;;1.00;0.90;;;;;;;27.21;79.89;100373.13;10408143;28;20091;-81
2022/08/15 13:34:24;;;;;;;5.68;1.85;;;;;;;26.87;86.24;100356.34;10391979;28;20128;-80
2022/08/15 13:39:36;;;;;;;2.17;1.10;;;;;;;27.38;88.04;100355.47;10398708;28;20042;-77
2022/08/15 13:44:56;;;;;;;0.50;0.50;;;;;;;26.67;88.56;100359.97;10390997;28;20436;-79
2022/08/15 13:50:00;;;;;;;1.80;1.33;;;;;;;26.07;94.67;100360.22;10388621;28;20042;-79
2022/08/15 13:55:21;;;;;;;1.30;0.60;;;;;;;26.06;94.69;100361.16;10407896;28;20049;-79
2022/08/15 14:00:23;;;;;;;1.10;1.00;;;;;;;26.13;96.70;100357.31;10397473;28;20049;-79
2022/08/15 14:05:45;;;;;;;0.47;0.47;;;;;;;25.99;95.93;100357.94;10387191;28;20119;-79
2022/08/15 14:10:47;;;;;;;3.15;0.93;;;;;;;26.13;99.23;100354.69;10401374;28;20042;-79
2022/08/15 14:16:12;;;;;;;1.13;0.40;;;;;;;25.81;100.00;100354.38;10400410;28;20498;-79
2022/08/15 14:21:35;;;;;;;0.73;0.47;;;;;;;26.02;100.00;100346.41;10404213;28;20037;-79
2022/08/15 14:26:50;;;;;;;0.63;0.30;;;;;;;26.04;95.56;100344.53;10399084;28;20049;-80
2022/08/15 14:32:50;;;;;;;1.17;0.60;;;;;;;26.43;94.21;100346.19;10409685;28;20044;-79
2022/08/15 14:37:55;;;;;;;0.82;0.82;;;;;;;26.04;100.00;100347.16;10435061;28;20049;-78
2022/08/15 14:42:58;;;;;;;0.82;0.75;;;;;;;25.87;96.60;100353.25;10459436;28;20384;-79
2022/08/15 14:48:08;;;;;;;3.13;0.63;;;;;;;27.01;89.15;100344.19;10450866;28;20084;-78
2022/08/15 14:53:30;;;;;;;0.63;0.52;;;;;;;26.55;91.50;100352.66;10431137;28;20037;-79
2022/08/15 14:58:35;;;;;;;0.68;0.45;;;;;;;26.75;92.16;100352.53;10450651;28;20504;-78
2022/08/15 15:03:42;;;;;;;2.38;0.70;;;;;;;26.09;94.27;100353.13;10429889;28;20176;-80
2022/08/15 15:09:03;;;;;;;1.00;0.80;;;;;;;25.89;96.20;100352.25;10444741;28;20049;-78
2022/08/15 15:14:07;;;;;;;1.23;0.68;;;;;;;26.65;91.54;100355.69;10457915;28;20033;-78
2022/08/15 15:19:20;;;;;;;2.28;1.20;;;;;;;26.52;92.55;100351.03;10434879;28;20397;-78
2022/08/15 15:24:40;;;;;;;3.15;1.05;;;;;;;26.98;90.50;100347.03;10449932;28;20037;-78
2022/08/15 15:29:45;;;;;;;3.05;0.75;;;;;;;26.47;97.67;100342.50;10455874;28;20129;-78
2022/08/15 15:34:51;;;;;;;1.58;1.02;;;;;;;26.57;98.56;100341.09;10435738;28;20052;-78
2022/08/15 15:39:56;;;;;;;1.30;1.13;;;;;;;26.39;96.53;100334.94;10451416;28;20075;-80
2022/08/15 15:45:11;;;;;;;1.27;0.98;;;;;;;26.97;89.16;100345.31;10421918;28;20113;-79
2022/08/15 15:50:25;;;;;;;1.77;1.10;;;;;;;26.61;90.58;100349.72;10458155;28;20052;-79
2022/08/15 15:55:32;;;;;;;2.83;1.17;;;;;;;26.59;92.65;100346.28;10448786;28;20045;-78
2022/08/15 16:00:46;;;;;;;2.13;1.25;;;;;;;26.50;95.46;100347.59;10452772;28;20114;-77
2022/08/15 16:05:58;;;;;;;1.17;0.73;;;;;;;26.27;93.57;100352.22;10442671;28;20049;-78
2022/08/15 16:11:36;;;;;;;0.90;0.50;;;;;;;26.39;95.86;100348.13;10435959;23;20407;-78
2022/08/15 16:17:20;;;;;;;1.10;0.88;;;;;;;26.27;95.76;100341.66;10467912;28;20533;-77
2022/08/15 16:22:27;;;;;;;0.68;0.57;;;;;;;26.49;87.74;100350.34;10456021;28;20047;-78
2022/08/15 16:27:37;;;;;;;1.60;0.93;;;;;;;26.67;88.48;100353.84;10477417;28;20419;-77
2022/08/15 16:33:11;;;;;;;0.95;0.60;;;;;;;26.64;91.04;100346.06;10471679;28;20412;-77
2022/08/15 16:38:19;;;;;;;0.65;0.55;;;;;;;26.44;89.50;100348.75;10485804;28;20045;-77
2022/08/15 16:43:46;;;;;;;0.80;0.73;;;;;;;27.01;92.99;100347.72;10451995;28;20567;-77
2022/08/15 16:49:49;;;;;;;1.48;0.60;;;;;;;26.04;96.43;100349.81;10489153;28;20072;-77
2022/08/15 16:55:04;;;;;;;0.57;0.50;;;;;;;26.23;98.87;100344.53;10415816;28;20114;-76
2022/08/15 17:00:15;;;;;;;0.80;0.70;;;;;;;26.07;95.61;100345.28;10464957;28;20449;-76
2022/08/15 17:06:04;;;;;;;2.53;1.52;;;;;;;26.21;97.02;100341.97;10481914;28;20072;-77
2022/08/15 17:11:38;;;;;;;1.63;1.00;;;;;;;25.90;98.28;100343.41;10463320;28;20075;-77
2022/08/15 17:16:53;;;;;;;0.55;0.38;;;;;;;26.01;98.67;100334.13;10428359;28;20447;-77
2022/08/15 17:22:04;;;;;;;3.70;0.80;;;;;;;25.88;100.00;100332.06;10463131;28;20393;-77
2022/08/15 17:27:15;;;;;;;0.50;0.50;;;;;;;25.59;100.00;100338.72;10479828;28;20051;-77
2022/08/15 17:32:47;;;;;;;1.77;1.00;;;;;;;25.56;100.00;100334.44;10466870;28;20117;-77
2022/08/15 17:37:56;;;;;;;1.13;0.98;;;;;;;25.63;100.00;100351.69;10470487;28;20114;-77
2022/08/15 17:43:06;;;;;;;0.50;0.40;;;;;;;25.54;100.00;100349.47;10487288;28;20037;-78
2022/08/15 17:48:21;;;;;;;1.65;0.82;;;;;;;25.48;100.00;100352.38;10463339;28;20127;-78
2022/08/15 17:54:02;;;;;;;1.83;0.90;;;;;;;25.44;100.00;100366.63;10485062;28;20464;-77
2022/08/15 17:59:15;;;;;;;0.40;0.40;;;;;;;25.58;100.00;100374.75;10463959;28;20049;-78
2022/08/15 18:04:17;;;;;;;0.68;0.40;;;;;;;25.50;100.00;100371.66;10462411;28;20384;-77
2022/08/15 18:09:25;;;;;;;0.25;0.20;;;;;;;25.48;100.00;100373.50;10463337;28;20044;-77
2022/08/15 18:14:47;;;;;;;0.22;0.22;;;;;;;25.35;100.00;100376.63;10482730;28;20040;-77
2022/08/15 18:20:16;;;;;;;0.30;0.20;;;;;;;25.25;100.00;100388.50;10486430;28;20415;-78
2022/08/15 18:25:30;;;;;;;0.50;0.50;;;;;;;25.17;100.00;100388.00;10493486;28;20032;-77
2022/08/15 18:30:49;;;;;;;0.35;0.35;;;;;;;25.08;100.00;100396.28;10492292;28;20037;-76
2022/08/15 18:36:04;;;;;;;0.40;0.20;;;;;;;25.00;100.00;100399.25;10495161;28;20053;-77
2022/08/15 18:41:59;;;;;;;0.25;0.20;;;;;;;24.83;100.00;100410.50;10501461;28;20492;-76
2022/08/15 18:47:22;;;;;;;1.75;0.65;;;;;;;24.66;100.00;100417.31;10481478;28;20049;-78
2022/08/15 18:52:33;;;;;;;1.05;0.55;;;;;;;24.58;100.00;100422.00;10470867;28;20049;-77
2022/08/15 18:57:40;;;;;;;0.30;0.30;;;;;;;24.30;100.00;100431.03;10480688;28;20047;-78
2022/08/15 19:03:07;;;;;;;1.58;1.02;;;;;;;24.12;100.00;100437.84;10487490;28;20040;-78
2022/08/15 19:08:09;;;;;;;0.47;0.35;;;;;;;24.04;100.00;100440.75;10485951;28;20052;-77
2022/08/15 19:19:56;;;;;;;0.10;0.10;;;;;;;23.65;100.00;100464.94;10468685;28;20044;-78
2022/08/15 19:25:01;;;;;;;0.45;0.28;;;;;;;23.61;100.00;100468.59;10470621;28;20040;-78
2022/08/15 19:30:18;;;;;;;0.40;0.40;;;;;;;23.39;100.00;100479.88;10463242;28;20040;-77
2022/08/15 19:35:29;;;;;;;0.90;0.60;;;;;;;23.49;100.00;100469.06;10464137;28;20049;-74
2022/08/15 19:41:09;;;;;;;0.00;0.00;;;;;;;23.48;100.00;100475.22;10491797;28;20048;-76
2022/08/15 19:46:17;;;;;;;0.00;0.00;;;;;;;23.02;100.00;100491.59;10463953;28;20052;-77
2022/08/15 19:51:54;;;;;;;0.08;0.08;;;;;;;23.01;100.00;100500.38;10457110;28;20479;-76
2022/08/15 19:57:07;;;;;;;0.00;0.00;;;;;;;22.93;100.00;100499.75;10456572;28;20056;-77
2022/08/15 20:02:22;;;;;;;0.38;0.28;;;;;;;22.86;100.00;100506.13;10476665;28;20045;-77
2022/08/15 20:07:41;;;;;;;0.10;0.10;;;;;;;22.77;100.00;100509.91;10463581;28;20502;-77
2022/08/15 20:13:02;;;;;;;0.00;0.00;;;;;;;22.89;100.00;100506.03;10465993;28;20095;-77
2022/08/15 20:18:26;;;;;;;0.35;0.25;;;;;;;22.91;100.00;100517.31;10467111;28;20053;-77
2022/08/15 20:23:43;;;;;;;0.63;0.38;;;;;;;22.60;100.00;100520.94;10490423;28;20040;-77
2022/08/15 20:28:50;;;;;;;0.32;0.22;;;;;;;22.64;100.00;100525.16;10454666;28;20049;-77
2022/08/15 20:34:01;;;;;;;0.80;0.43;;;;;;;22.52;100.00;100529.03;10462696;28;20076;-77
2022/08/15 20:39:08;;;;;;;0.47;0.22;;;;;;;22.35;100.00;100532.97;10474297;28;20037;-77
2022/08/15 20:44:41;;;;;;;0.30;0.30;;;;;;;22.40;100.00;100530.25;10469007;28;20036;-77
2022/08/15 20:49:47;;;;;;;1.52;1.27;;;;;;;22.53;100.00;100522.00;10461162;28;20411;-77
2022/08/15 20:54:54;;;;;;;0.30;0.30;;;;;;;22.48;100.00;100523.00;10473171;28;20048;-77
2022/08/15 20:59:56;;;;;;;2.72;0.93;;;;;;;22.31;100.00;100540.97;10441603;28;20055;-77
2022/08/15 21:05:12;;;;;;;0.20;0.20;;;;;;;22.26;100.00;100551.63;10439015;28;20041;-77
2022/08/15 21:10:54;;;;;;;0.40;0.40;;;;;;;22.18;100.00;100551.81;10453336;28;20048;-77
2022/08/15 21:16:22;;;;;;;0.40;0.20;;;;;;;22.06;100.00;100557.41;10362038;28;20076;-77
2022/08/15 21:21:33;;;;;;;0.00;0.00;;;;;;;21.89;100.00;100585.84;10475464;28;20037;-77
2022/08/15 21:26:39;;;;;;;0.65;0.50;;;;;;;21.75;100.00;100583.56;10455097;28;20086;-77
2022/08/15 21:32:24;;;;;;;0.73;0.40;;;;;;;21.53;100.00;100595.47;10457748;28;20040;-77
2022/08/15 21:37:50;;;;;;;0.22;0.20;;;;;;;21.65;100.00;100599.56;10460849;28;20500;-81
2022/08/15 21:49:54;;;;;;;0.20;0.20;;;;;;;21.46;100.00;100599.13;10478571;28;20422;-79
2022/08/15 21:55:17;;;;;;;0.30;0.25;;;;;;;21.24;100.00;100625.84;10462900;28;20045;-78
2022/08/15 22:00:29;;;;;;;0.10;0.10;;;;;;;21.28;100.00;100628.38;10484746;28;20040;-77
2022/08/15 22:05:37;;;;;;;0.05;0.00;;;;;;;21.26;100.00;100622.31;10474976;28;20047;-79
2022/08/15 22:10:42;;;;;;;0.77;0.25;;;;;;;21.30;100.00;100608.25;10506171;28;20503;-79
2022/08/15 22:15:45;;;;;;;1.60;0.85;;;;;;;21.36;100.00;100602.84;10487018;28;20053;-79
2022/08/15 22:21:45;;;;;;;0.00;0.00;;;;;;;21.40;100.00;100599.28;10512658;28;20119;-79
2022/08/15 22:26:49;;;;;;;0.00;0.00;;;;;;;21.60;100.00;100587.47;10490437;28;20041;-79
2022/08/15 22:31:57;;;;;;;1.05;0.95;;;;;;;21.69;100.00;100582.00;10467231;28;20053;-78
2022/08/15 22:37:19;;;;;;;1.45;0.32;;;;;;;21.85;100.00;100575.47;10469919;28;20037;-78
2022/08/15 22:42:30;;;;;;;0.50;0.45;;;;;;;21.61;100.00;100576.09;10468767;28;20040;-78
2022/08/15 22:47:35;;;;;;;1.45;1.27;;;;;;;21.54;100.00;100584.06;10488655;28;20399;-77
2022/08/15 22:52:50;;;;;;;1.38;1.27;;;;;;;21.65;100.00;100575.97;10471219;28;20131;-78
2022/08/15 22:57:51;;;;;;;0.43;0.25;;;;;;;21.73;100.00;100570.53;10487433;28;20392;-78
2022/08/15 23:03:01;;;;;;;0.83;0.50;;;;;;;21.68;100.00;100567.16;10481555;28;20076;-79
2022/08/15 23:08:10;;;;;;;0.65;0.52;;;;;;;21.73;100.00;100565.28;10447910;28;20057;-78
2022/08/15 23:13:32;;;;;;;0.00;0.00;;;;;;;21.79;100.00;100565.09;10463469;28;20028;-78
2022/08/15 23:18:59;;;;;;;0.00;0.00;;;;;;;21.57;100.00;100575.31;10460929;28;20239;-78
2022/08/15 23:24:07;;;;;;;0.13;0.13;;;;;;;21.34;100.00;100586.31;10451399;28;20052;-78
2022/08/15 23:29:31;;;;;;;0.08;0.05;;;;;;;21.30;100.00;100587.28;10468104;28;20188;-78
2022/08/15 23:34:37;;;;;;;1.10;0.30;;;;;;;20.98;100.00;100586.25;10464778;28;20083;-78
2022/08/15 23:39:53;;;;;;;0.30;0.30;;;;;;;21.01;100.00;100601.91;10452003;28;20541;-78
2022/08/15 23:44:55;;;;;;;1.08;0.50;;;;;;;21.07;100.00;100581.66;10479966;28;20094;-78
2022/08/15 23:49:59;;;;;;;0.00;0.00;;;;;;;20.88;100.00;100583.88;10452581;28;20143;-78
2022/08/15 23:55:01;;;;;;;0.25;0.20;;;;;;;20.84;100.00;100587.44;10459401;28;20060;-78
